Time;durP1;ratioP1;P1;durP2;ratioP2;P2;SDS_P1;SDS_P2;PMS_P1;PMS_P2;Temp;Humidity;BMP_temperature;BMP_pressure;BME280_temperature;BME280_humidity;BME280_pressure;Samples;Min_cycle;Max_cycle;Signal;HPM_P1;HPM_P2
2022/09/26 00:01:21;;;;;;;;;;;10.90;99.90;;;;;;5066678;28;20051;-80
2022/09/26 00:03:49;;;;;;;0.88;0.35;;;10.80;99.90;;;;;;5070190;28;20258;-79
2022/09/26 00:06:17;;;;;;;0.50;0.32;;;10.90;99.90;;;;;;5069180;28;20072;-79
2022/09/26 00:08:44;;;;;;;1.65;0.47;;;11.00;99.90;;;;;;5083919;28;20036;-79
2022/09/26 00:11:13;;;;;;;0.20;0.20;;;10.90;99.90;;;;;;5054139;28;20032;-79
2022/09/26 00:13:40;;;;;;;0.55;0.30;;;10.90;99.90;;;;;;5061955;28;20115;-80
2022/09/26 00:16:06;;;;;;;0.40;0.30;;;10.80;99.90;;;;;;5065792;28;20046;-79
2022/09/26 00:18:33;;;;;;;0.45;0.38;;;10.80;99.90;;;;;;5088436;28;20578;-79
2022/09/26 00:21:03;;;;;;;;;;;10.90;99.90;;;;;;5059067;28;20127;-79
2022/09/26 00:23:28;;;;;;;0.68;0.40;;;11.00;99.90;;;;;;5071148;28;19920;-79
2022/09/26 00:25:57;;;;;;;1.55;0.50;;;10.90;99.90;;;;;;5067510;28;20040;-79
2022/09/26 00:28:23;;;;;;;0.70;0.40;;;10.90;99.90;;;;;;5070436;28;20654;-79
2022/09/26 00:30:49;;;;;;;0.95;0.28;;;11.00;99.90;;;;;;5073452;28;20127;-79
2022/09/26 00:33:14;;;;;;;0.90;0.40;;;11.00;99.90;;;;;;5072328;28;20047;-80
2022/09/26 00:35:47;;;;;;;0.63;0.30;;;10.90;99.90;;;;;;5064960;28;20040;-80
2022/09/26 00:38:13;;;;;;;0.80;0.38;;;10.90;99.90;;;;;;5082661;28;20048;-79
2022/09/26 00:40:38;;;;;;;0.57;0.40;;;11.10;99.90;;;;;;5087027;28;20054;-79
2022/09/26 00:43:37;;;;;;;0.40;0.40;;;11.20;99.90;;;;;;5069542;28;20479;-79
2022/09/26 00:46:25;;;;;;;0.73;0.50;;;11.20;99.90;;;;;;5071334;28;20097;-80
2022/09/26 00:49:09;;;;;;;;;;;11.10;99.90;;;;;;5076196;28;20075;-79
2022/09/26 00:51:38;;;;;;;0.47;0.40;;;11.10;99.90;;;;;;5086956;28;19916;-79
2022/09/26 00:54:08;;;;;;;0.93;0.47;;;11.30;99.90;;;;;;5086457;28;20040;-79
2022/09/26 00:56:38;;;;;;;1.42;0.70;;;11.30;99.90;;;;;;5086611;28;20056;-79
2022/09/26 00:59:15;;;;;;;1.90;0.50;;;11.20;99.90;;;;;;5091410;28;20048;-79
2022/09/26 01:01:41;;;;;;;2.28;0.70;;;11.40;99.90;;;;;;5079277;28;20124;-79
2022/09/26 01:04:07;;;;;;;0.88;0.82;;;11.20;99.90;;;;;;5083423;28;20128;-79
2022/09/26 01:06:33;;;;;;;1.42;0.50;;;11.20;99.90;;;;;;5072067;28;20040;-79
2022/09/26 01:09:06;;;;;;;0.47;0.43;;;11.20;99.90;;;;;;5055522;28;20384;-79
2022/09/26 01:11:36;;;;;;;0.38;0.38;;;11.20;99.90;;;;;;5082941;28;20048;-79
2022/09/26 01:14:04;;;;;;;0.93;0.57;;;11.30;99.90;;;;;;5082880;28;20044;-78
2022/09/26 01:16:30;;;;;;;1.42;0.45;;;11.20;99.90;;;;;;5085479;28;20040;-79
2022/09/26 01:18:57;;;;;;;0.57;0.40;;;11.20;99.90;;;;;;5075749;28;20047;-73
2022/09/26 01:21:34;;;;;;;1.30;0.50;;;11.20;99.90;;;;;;5078403;28;20450;-72
2022/09/26 01:24:15;;;;;;;1.30;0.50;;;11.20;99.90;;;;;;5092929;28;20093;-72
2022/09/26 01:27:02;;;;;;;1.08;0.50;;;11.40;99.90;;;;;;5074290;28;20087;-72
2022/09/26 01:29:49;;;;;;;0.80;0.50;;;11.20;99.90;;;;;;5086847;28;20095;-72
2022/09/26 01:32:48;;;;;;;0.70;0.60;;;11.20;99.90;;;;;;5086868;28;20105;-72
2022/09/26 01:35:31;;;;;;;0.55;0.50;;;11.40;99.90;;;;;;5081841;28;20105;-72
2022/09/26 01:38:10;;;;;;;1.45;0.65;;;11.20;99.90;;;;;;5089242;28;20055;-73
2022/09/26 01:41:11;;;;;;;0.82;0.50;;;11.40;99.90;;;;;;5055268;28;20049;-72
2022/09/26 01:44:00;;;;;;;0.73;0.60;;;11.40;99.90;;;;;;5059897;28;20782;-73
2022/09/26 01:46:31;;;;;;;1.83;0.80;;;11.30;99.90;;;;;;5072698;28;20032;-73
2022/09/26 01:49:13;;;;;;;2.20;0.88;;;11.10;99.90;;;;;;5076037;28;20103;-72
2022/09/26 01:52:00;;;;;;;2.35;1.08;;;11.40;99.90;;;;;;5079893;28;20086;-73
2022/09/26 01:54:33;;;;;;;1.52;0.68;;;11.10;99.90;;;;;;5077467;28;20066;-72
2022/09/26 01:57:03;;;;;;;1.60;0.70;;;11.30;99.90;;;;;;5081926;28;20052;-73
2022/09/26 01:59:34;;;;;;;1.80;0.80;;;11.30;99.90;;;;;;5085969;28;20054;-73
2022/09/26 02:02:14;;;;;;;1.52;0.90;;;11.10;99.90;;;;;;5085042;28;20079;-73
2022/09/26 02:04:43;;;;;;;1.52;0.88;;;11.40;99.90;;;;;;5084306;28;20046;-73
2022/09/26 02:07:17;;;;;;;0.95;0.75;;;11.30;99.90;;;;;;5089190;28;20050;-73
2022/09/26 02:09:51;;;;;;;1.75;1.02;;;11.30;99.90;;;;;;5064417;28;20048;-73
2022/09/26 02:12:27;;;;;;;1.35;0.80;;;11.10;99.90;;;;;;5081867;28;20035;-73
2022/09/26 02:14:58;;;;;;;0.77;0.60;;;11.20;99.90;;;;;;5072774;28;20127;-74
2022/09/26 02:17:32;;;;;;;2.22;0.98;;;11.20;99.90;;;;;;5070686;28;20408;-73
2022/09/26 02:20:01;;;;;;;1.38;0.63;;;11.20;99.90;;;;;;5086163;28;20473;-73
2022/09/26 02:22:37;;;;;;;1.88;0.95;;;11.00;99.90;;;;;;5078952;28;20040;-73
2022/09/26 02:25:04;;;;;;;1.10;0.70;;;11.00;99.90;;;;;;5088219;28;20390;-73
2022/09/26 02:27:30;;;;;;;1.83;0.93;;;10.90;99.90;;;;;;5088583;28;20043;-73
2022/09/26 02:29:56;;;;;;;1.50;0.82;;;11.10;99.90;;;;;;5055994;28;20040;-73
2022/09/26 02:32:30;;;;;;;1.10;0.85;;;11.20;99.90;;;;;;5086321;28;20136;-73
2022/09/26 02:34:57;;;;;;;0.90;0.73;;;11.20;99.90;;;;;;5054348;28;20176;-73
2022/09/26 02:37:24;;;;;;;1.02;0.80;;;10.80;99.90;;;;;;5077419;28;20479;-72
2022/09/26 02:39:51;;;;;;;1.58;0.80;;;10.80;99.90;;;;;;5081565;28;20048;-73
2022/09/26 02:42:27;;;;;;;2.13;0.80;;;10.80;99.90;;;;;;5074944;28;20625;-72
2022/09/26 02:45:08;;;;;;;1.40;0.80;;;10.80;99.90;;;;;;5086240;28;20102;-72
2022/09/26 02:47:53;;;;;;;2.35;0.90;;;11.10;99.90;;;;;;5070331;28;20041;-73
2022/09/26 02:50:24;;;;;;;1.48;0.80;;;11.00;99.90;;;;;;5085875;28;20391;-72
2022/09/26 02:53:19;;;;;;;2.78;1.02;;;11.00;99.90;;;;;;5089216;28;20051;-72
2022/09/26 02:56:02;;;;;;;1.60;0.90;;;11.10;99.90;;;;;;5070781;28;20051;-72
2022/09/26 02:58:49;;;;;;;1.40;1.10;;;10.70;99.90;;;;;;5076947;28;20054;-72
2022/09/26 03:01:30;;;;;;;1.35;0.70;;;10.60;99.90;;;;;;5075362;28;20091;-72
2022/09/26 03:04:07;;;;;;;1.08;0.80;;;10.90;99.90;;;;;;5085446;28;20083;-73
2022/09/26 03:06:36;;;;;;;1.00;0.70;;;11.00;99.90;;;;;;5055359;28;20052;-73
2022/09/26 03:09:05;;;;;;;0.70;0.70;;;11.00;99.90;;;;;;5089429;28;20051;-73
2022/09/26 03:11:34;;;;;;;0.90;0.68;;;10.60;99.90;;;;;;5087336;28;20502;-73
2022/09/26 03:14:00;;;;;;;1.98;0.82;;;10.80;99.90;;;;;;5088082;28;20483;-73
2022/09/26 03:16:32;;;;;;;1.30;0.80;;;10.60;99.90;;;;;;5069834;28;20052;-73
2022/09/26 03:19:14;;;;;;;0.90;0.70;;;10.80;99.90;;;;;;5086116;28;20080;-73
2022/09/26 03:21:40;;;;;;;1.85;0.90;;;11.00;99.90;;;;;;5075696;28;20058;-73
2022/09/26 03:24:06;;;;;;;0.98;0.68;;;10.70;99.90;;;;;;5080741;28;20484;-73
2022/09/26 03:26:33;;;;;;;1.02;0.90;;;10.70;99.90;;;;;;5071039;28;20311;-73
2022/09/26 03:28:59;;;;;;;1.58;0.90;;;10.60;99.90;;;;;;5070007;28;20479;-73
2022/09/26 03:31:24;;;;;;;1.35;0.80;;;10.50;99.90;;;;;;5086874;28;20043;-73
2022/09/26 03:33:51;;;;;;;1.17;0.80;;;10.80;99.90;;;;;;5102435;28;20040;-73
2022/09/26 03:36:17;;;;;;;0.75;0.70;;;11.00;99.90;;;;;;5070143;28;20438;-73
2022/09/26 03:38:43;;;;;;;0.98;0.77;;;11.00;99.90;;;;;;5075237;28;20132;-73
2022/09/26 03:41:08;;;;;;;1.33;0.88;;;11.10;99.90;;;;;;5069367;28;20127;-73
2022/09/26 03:43:35;;;;;;;2.13;1.00;;;11.00;99.90;;;;;;5078835;28;20040;-72
2022/09/26 03:46:06;;;;;;;2.10;1.00;;;10.60;99.90;;;;;;5073216;28;20040;-73
2022/09/26 03:48:32;;;;;;;1.90;1.02;;;10.90;99.90;;;;;;5073030;28;20064;-73
2022/09/26 03:51:10;;;;;;;1.40;0.85;;;10.60;99.90;;;;;;5089917;28;20100;-73
2022/09/26 03:53:38;;;;;;;1.02;0.82;;;10.50;99.90;;;;;;5089234;28;20048;-73
2022/09/26 03:56:16;;;;;;;1.52;0.88;;;11.10;99.90;;;;;;5085781;28;20045;-73
2022/09/26 03:58:43;;;;;;;1.13;0.80;;;11.10;99.90;;;;;;5069466;28;20052;-73
2022/09/26 04:01:15;;;;;;;1.63;1.00;;;10.60;99.90;;;;;;5069523;28;20052;-73
2022/09/26 04:03:42;;;;;;;1.70;0.98;;;10.60;99.90;;;;;;5069661;28;20361;-73
2022/09/26 04:06:09;;;;;;;2.03;1.10;;;10.70;99.90;;;;;;5069356;28;20048;-73
2022/09/26 04:08:40;;;;;;;2.05;1.00;;;11.10;99.90;;;;;;5052763;28;20087;-73
2022/09/26 04:11:11;;;;;;;1.30;1.00;;;11.10;99.90;;;;;;5070085;28;20119;-72
2022/09/26 04:13:38;;;;;;;2.05;1.10;;;10.70;99.90;;;;;;5083891;28;20050;-79
2022/09/26 04:16:06;;;;;;;2.05;0.98;;;11.00;99.90;;;;;;5089556;28;20048;-79
2022/09/26 04:18:33;;;;;;;1.20;0.70;;;11.00;99.90;;;;;;5089428;28;20036;-80
2022/09/26 04:21:01;;;;;;;0.90;0.80;;;10.70;99.90;;;;;;5072508;28;20473;-79
2022/09/26 04:23:28;;;;;;;1.75;0.88;;;10.50;99.90;;;;;;5087497;28;20093;-79
2022/09/26 04:25:54;;;;;;;2.30;1.10;;;11.10;99.90;;;;;;5087552;28;20048;-79
2022/09/26 04:28:20;;;;;;;1.20;1.00;;;10.50;99.90;;;;;;5089946;28;20044;-79
2022/09/26 04:30:46;;;;;;;3.00;1.20;;;10.60;99.90;;;;;;5070713;28;20369;-79
2022/09/26 04:33:12;;;;;;;2.08;1.20;;;10.60;99.90;;;;;;5087465;28;20039;-79
2022/09/26 04:35:38;;;;;;;2.35;1.15;;;10.50;99.90;;;;;;5073031;28;20196;-80
2022/09/26 04:38:03;;;;;;;2.40;1.17;;;11.00;99.90;;;;;;5046828;28;20102;-80
2022/09/26 04:40:30;;;;;;;1.63;1.10;;;11.00;99.90;;;;;;5073141;28;20127;-80
2022/09/26 04:42:57;;;;;;;1.77;1.30;;;10.60;99.90;;;;;;5081732;28;20048;-79
2022/09/26 04:45:23;;;;;;;2.63;1.52;;;11.10;99.90;;;;;;5072867;28;20496;-79
2022/09/26 04:47:49;;;;;;;2.45;1.40;;;10.70;99.90;;;;;;5080026;28;20079;-81
2022/09/26 04:50:15;;;;;;;3.08;1.40;;;10.70;99.90;;;;;;5076705;28;20130;-80
2022/09/26 04:52:41;;;;;;;1.92;1.17;;;10.50;99.90;;;;;;5052988;28;20050;-80
2022/09/26 04:55:07;;;;;;;1.95;1.17;;;10.50;99.90;;;;;;5074959;28;20040;-80
2022/09/26 04:57:33;;;;;;;1.48;1.00;;;10.90;99.90;;;;;;5092428;28;20055;-80
2022/09/26 04:59:59;;;;;;;2.63;1.38;;;10.80;99.90;;;;;;5091066;28;20135;-80
2022/09/26 05:02:24;;;;;;;1.55;1.40;;;10.60;99.90;;;;;;5055218;28;20150;-80
2022/09/26 05:04:50;;;;;;;2.13;1.30;;;10.60;99.90;;;;;;5060431;28;20035;-80
2022/09/26 05:07:17;;;;;;;2.13;1.20;;;10.90;99.90;;;;;;5077743;28;20116;-79
2022/09/26 05:09:43;;;;;;;1.90;1.40;;;10.50;99.90;;;;;;5062866;28;20439;-79
2022/09/26 05:12:10;;;;;;;1.80;1.42;;;10.90;99.90;;;;;;5081720;28;20043;-79
2022/09/26 05:14:36;;;;;;;1.98;1.67;;;10.40;99.90;;;;;;5080277;28;20079;-80
2022/09/26 05:17:02;;;;;;;1.60;1.40;;;10.40;99.90;;;;;;5073913;28;20083;-80
2022/09/26 05:19:28;;;;;;;4.38;1.83;;;10.30;99.90;;;;;;5066940;28;20496;-80
2022/09/26 05:21:54;;;;;;;2.20;1.60;;;11.00;99.90;;;;;;5066329;28;20035;-80
2022/09/26 05:27:07;;;;;;;1.83;1.17;;;10.60;99.90;;;;;;5078334;28;20436;-75
2022/09/26 05:29:33;;;;;;;1.90;1.30;;;10.40;99.90;;;;;;5076413;28;20043;-75
2022/09/26 05:32:00;;;;;;;2.28;1.40;;;10.80;99.90;;;;;;5083930;28;20051;-74
2022/09/26 05:34:25;;;;;;;;;;;10.30;99.90;;;;;;5060816;28;20062;-74
2022/09/26 05:36:55;;;;;;;2.25;1.60;;;10.50;99.90;;;;;;5061423;28;19939;-74
2022/09/26 05:42:06;;;;;;;2.63;1.77;;;10.30;99.90;;;;;;5077523;28;20102;-75
2022/09/26 05:44:32;;;;;;;;;;;10.20;99.90;;;;;;5072994;28;20056;-74
2022/09/26 05:46:58;;;;;;;2.47;1.90;;;10.20;99.90;;;;;;5075992;28;19931;-74
2022/09/26 05:49:24;;;;;;;3.22;1.80;;;10.90;99.90;;;;;;5054036;28;20138;-75
2022/09/26 05:51:52;;;;;;;;;;;10.40;99.90;;;;;;5076912;28;20127;-75
2022/09/26 05:54:17;;;;;;;2.20;1.70;;;10.60;99.90;;;;;;5085825;28;19920;-75
2022/09/26 05:56:43;;;;;;;3.75;1.95;;;10.90;99.90;;;;;;5072678;28;20070;-74
2022/09/26 05:59:09;;;;;;;2.10;1.45;;;10.20;99.90;;;;;;5069920;28;20048;-76
2022/09/26 06:01:35;;;;;;;2.60;1.58;;;10.90;99.90;;;;;;5074280;28;20044;-75
2022/09/26 06:04:03;;;;;;;1.90;1.60;;;10.20;99.90;;;;;;5084481;28;20055;-75
2022/09/26 06:06:29;;;;;;;2.80;1.77;;;10.20;99.90;;;;;;5086207;28;20068;-76
2022/09/26 06:08:55;;;;;;;4.25;2.03;;;10.80;99.90;;;;;;5073914;28;20488;-75
2022/09/26 06:11:28;;;;;;;2.90;1.67;;;10.30;99.90;;;;;;5053987;28;20147;-75
2022/09/26 06:13:54;;;;;;;2.53;1.85;;;10.70;99.90;;;;;;5064369;28;20120;-75
2022/09/26 06:16:20;;;;;;;;;;;10.80;99.90;;;;;;5082802;28;20048;-73
2022/09/26 06:18:48;;;;;;;3.42;2.03;;;10.10;99.90;;;;;;5070698;28;19921;-72
2022/09/26 06:21:16;;;;;;;2.97;1.92;;;10.10;99.90;;;;;;5072125;28;20055;-76
2022/09/26 06:23:42;;;;;;;2.30;1.88;;;10.20;99.90;;;;;;5083805;28;20040;-77
2022/09/26 06:26:19;;;;;;;2.72;1.60;;;10.20;99.90;;;;;;5090693;28;20436;-76
2022/09/26 06:28:44;;;;;;;3.60;1.92;;;10.70;99.90;;;;;;5082942;28;20452;-73
2022/09/26 06:31:16;;;;;;;3.45;2.17;;;10.70;99.90;;;;;;5070580;28;20078;-73
2022/09/26 06:33:41;;;;;;;2.20;1.63;;;10.60;99.90;;;;;;5069829;28;20051;-73
2022/09/26 06:36:09;;;;;;;3.13;1.80;;;10.80;99.90;;;;;;5087496;28;20044;-73
2022/09/26 06:38:36;;;;;;;2.47;1.58;;;10.20;99.90;;;;;;5068945;28;20373;-73
2022/09/26 06:41:02;;;;;;;2.17;1.77;;;10.70;99.90;;;;;;5081317;28;20045;-75
2022/09/26 06:43:30;;;;;;;2.53;1.70;;;10.70;99.90;;;;;;5069319;28;20044;-72
2022/09/26 06:45:56;;;;;;;3.05;2.00;;;10.10;99.90;;;;;;5070531;28;20421;-73
2022/09/26 06:48:22;;;;;;;2.40;1.55;;;10.40;99.90;;;;;;5068750;28;20044;-74
2022/09/26 06:50:57;;;;;;;2.83;1.60;;;10.30;99.90;;;;;;5073173;28;20044;-73
2022/09/26 06:53:23;;;;;;;2.72;1.60;;;10.70;99.90;;;;;;5079436;28;20041;-75
2022/09/26 06:55:48;;;;;;;2.33;1.70;;;10.50;99.90;;;;;;5071949;28;20051;-74
2022/09/26 06:58:14;;;;;;;2.05;1.50;;;10.10;99.90;;;;;;5089584;28;20052;-75
2022/09/26 07:00:40;;;;;;;4.60;2.08;;;10.10;99.90;;;;;;5072627;28;20096;-75
2022/09/26 07:03:07;;;;;;;3.67;2.30;;;10.60;99.90;;;;;;5087398;28;20393;-76
2022/09/26 07:05:33;;;;;;;2.83;2.10;;;10.30;99.90;;;;;;5090060;28;20248;-75
2022/09/26 07:08:00;;;;;;;4.10;2.40;;;10.50;99.90;;;;;;5089902;28;20044;-75
2022/09/26 07:10:29;;;;;;;;;;;10.40;99.90;;;;;;5081191;28;20045;-75
2022/09/26 07:13:02;;;;;;;2.90;1.67;;;10.50;99.90;;;;;;5053264;28;20386;-75
2022/09/26 07:15:32;;;;;;;2.25;1.75;;;10.70;99.90;;;;;;5081479;28;20119;-75
2022/09/26 07:18:02;;;;;;;5.22;2.05;;;10.20;99.90;;;;;;5084739;28;20130;-76
2022/09/26 07:20:34;;;;;;;2.33;1.80;;;10.30;99.90;;;;;;5088824;28;20051;-75
2022/09/26 07:23:01;;;;;;;2.92;1.85;;;10.70;99.90;;;;;;5086481;28;20391;-76
2022/09/26 07:25:28;;;;;;;2.28;1.65;;;10.50;99.90;;;;;;5071990;28;20040;-76
2022/09/26 07:27:54;;;;;;;5.25;2.15;;;10.70;99.90;;;;;;5071375;28;20524;-76
2022/09/26 07:30:19;;;;;;;2.80;1.77;;;10.50;99.90;;;;;;5085228;28;20071;-75
2022/09/26 07:32:46;;;;;;;3.22;1.80;;;10.80;99.90;;;;;;5079892;28;20368;-77
2022/09/26 07:35:16;;;;;;;2.75;1.83;;;10.30;99.90;;;;;;5080656;28;20059;-77
2022/09/26 07:37:42;;;;;;;3.45;1.88;;;10.20;99.90;;;;;;5068185;28;20070;-76
2022/09/26 07:40:08;;;;;;;2.55;1.67;;;10.10;99.90;;;;;;5090262;28;20481;-76
2022/09/26 07:42:36;;;;;;;;;;;10.70;99.90;;;;;;5087241;28;20047;-77
2022/09/26 07:45:02;;;;;;;3.75;1.90;;;10.60;99.90;;;;;;5085740;28;19916;-76
2022/09/26 07:50:16;;;;;;;3.20;1.80;;;10.70;99.90;;;;;;5076022;28;20388;-76
2022/09/26 07:52:43;;;;;;;2.70;1.50;;;10.30;99.90;;;;;;5068066;28;20048;-76
2022/09/26 07:55:12;;;;;;;2.28;1.40;;;10.80;99.90;;;;;;5075819;28;20056;-76
2022/09/26 07:57:38;;;;;;;2.15;1.55;;;10.70;99.90;;;;;;5055422;28;20510;-76
2022/09/26 08:00:07;;;;;;;1.48;1.13;;;10.40;99.90;;;;;;5086213;28;20051;-76
2022/09/26 08:02:34;;;;;;;1.65;1.30;;;10.50;99.90;;;;;;5060817;28;20036;-76
2022/09/26 08:05:03;;;;;;;2.25;1.20;;;11.00;99.90;;;;;;5071574;28;20036;-76
2022/09/26 08:07:31;;;;;;;1.70;1.00;;;10.60;99.90;;;;;;5098708;28;20044;-76
2022/09/26 08:09:57;;;;;;;3.50;1.38;;;10.70;99.90;;;;;;5087993;28;20043;-73
2022/09/26 08:12:24;;;;;;;2.28;1.30;;;11.00;99.90;;;;;;5079526;28;20434;-76
2022/09/26 08:14:51;;;;;;;1.88;1.30;;;10.70;99.90;;;;;;5073977;28;20161;-80
2022/09/26 08:17:18;;;;;;;1.98;1.17;;;10.70;99.90;;;;;;5075623;28;20044;-80
2022/09/26 08:19:44;;;;;;;3.40;1.33;;;10.80;99.90;;;;;;5081773;28;20036;-80
2022/09/26 08:22:11;;;;;;;1.75;1.30;;;11.00;99.90;;;;;;5074176;28;20147;-79
2022/09/26 08:24:37;;;;;;;1.67;1.23;;;10.80;99.90;;;;;;5075377;28;20551;-80
2022/09/26 08:27:04;;;;;;;3.60;1.60;;;10.90;99.90;;;;;;5072525;28;20041;-81
2022/09/26 08:29:31;;;;;;;;;;;10.80;99.90;;;;;;5073750;28;20079;-81
2022/09/26 08:31:57;;;;;;;2.08;1.40;;;10.90;99.90;;;;;;5073085;28;19973;-80
2022/09/26 08:34:23;;;;;;;5.03;1.52;;;11.30;99.90;;;;;;5039370;28;20040;-80
2022/09/26 08:36:53;;;;;;;2.45;1.40;;;11.10;99.90;;;;;;5055966;28;20094;-81
2022/09/26 08:39:21;;;;;;;1.73;1.25;;;11.30;99.90;;;;;;5072426;28;20476;-77
2022/09/26 08:42:05;;;;;;;3.15;1.35;;;10.90;99.90;;;;;;5072357;28;20041;-76
2022/09/26 08:44:42;;;;;;;1.75;1.20;;;10.90;99.90;;;;;;5089835;28;20040;-77
2022/09/26 08:47:08;;;;;;;;;;;11.00;99.90;;;;;;5093418;28;20044;-76
2022/09/26 08:49:49;;;;;;;2.13;1.20;;;10.90;99.90;;;;;;5075808;28;20264;-76
2022/09/26 08:52:46;;;;;;;1.40;1.20;;;11.00;99.90;;;;;;5092707;28;20101;-76
2022/09/26 08:55:17;;;;;;;2.90;1.20;;;11.00;99.90;;;;;;5092701;28;20040;-76
2022/09/26 08:57:54;;;;;;;2.85;1.55;;;11.30;99.90;;;;;;5092191;28;20411;-76
2022/09/26 09:00:26;;;;;;;2.58;1.38;;;11.10;99.90;;;;;;5092216;28;20144;-76
2022/09/26 09:03:00;;;;;;;2.85;1.20;;;11.40;99.90;;;;;;5092110;28;20123;-76
2022/09/26 09:05:31;;;;;;;2.85;1.40;;;11.40;99.90;;;;;;5092190;28;20135;-76
2022/09/26 09:08:00;;;;;;;2.60;1.40;;;11.30;99.90;;;;;;5092085;28;20093;-76
2022/09/26 09:10:45;;;;;;;2.25;1.10;;;11.30;99.90;;;;;;5092294;28;20032;-77
2022/09/26 09:13:23;;;;;;;1.92;1.50;;;11.10;99.90;;;;;;5091929;28;20048;-76
2022/09/26 09:16:11;;;;;;;3.30;1.50;;;11.30;99.90;;;;;;5092061;28;20139;-76
2022/09/26 09:18:50;;;;;;;;;;;11.50;99.90;;;;;;5074863;28;20069;-76
2022/09/26 09:21:32;;;;;;;3.08;1.50;;;11.60;99.90;;;;;;5089845;28;20276;-76
2022/09/26 09:24:17;;;;;;;2.55;1.20;;;11.70;99.90;;;;;;5098575;28;20036;-76
2022/09/26 09:27:03;;;;;;;3.53;1.63;;;11.20;99.90;;;;;;5071711;28;20127;-76
2022/09/26 09:29:41;;;;;;;2.50;1.10;;;11.70;99.90;;;;;;5092051;28;20074;-76
2022/09/26 09:32:13;;;;;;;2.38;1.40;;;11.60;99.90;;;;;;5081041;28;20044;-76
2022/09/26 09:34:41;;;;;;;1.63;1.20;;;11.60;99.90;;;;;;5085406;28;20387;-81
2022/09/26 09:37:16;;;;;;;2.40;1.35;;;11.30;99.90;;;;;;5054481;28;20044;-80
2022/09/26 09:39:46;;;;;;;3.75;1.55;;;11.50;99.90;;;;;;5071006;28;20506;-81
2022/09/26 09:42:42;;;;;;;1.98;1.20;;;11.50;99.90;;;;;;5056148;28;20095;-81
2022/09/26 09:45:15;;;;;;;1.88;1.30;;;11.30;99.90;;;;;;5082503;28;20044;-81
2022/09/26 09:47:41;;;;;;;2.35;1.60;;;11.60;99.90;;;;;;5089483;28;20044;-82
2022/09/26 09:50:33;;;;;;;2.58;1.50;;;11.40;99.90;;;;;;5066791;28;20041;-82
2022/09/26 09:53:24;;;;;;;2.78;1.20;;;11.60;99.90;;;;;;5089963;28;20514;-81
2022/09/26 09:56:19;;;;;;;2.60;1.35;;;11.70;99.90;;;;;;5065520;28;20113;-82
2022/09/26 09:59:03;;;;;;;2.15;1.30;;;11.40;99.90;;;;;;5051039;28;20080;-80
2022/09/26 10:01:38;;;;;;;2.22;1.40;;;11.80;99.90;;;;;;5063830;28;20147;-81
2022/09/26 10:04:29;;;;;;;2.58;1.42;;;11.60;99.90;;;;;;5072207;28;20036;-81
2022/09/26 10:06:56;;;;;;;2.85;1.48;;;11.80;99.90;;;;;;5076016;28;20042;-80
2022/09/26 10:09:29;;;;;;;3.10;1.50;;;11.80;99.90;;;;;;5054414;28;20091;-75
2022/09/26 10:11:55;;;;;;;1.88;1.15;;;11.60;99.90;;;;;;5084869;28;20039;-73
2022/09/26 10:14:39;;;;;;;2.92;1.45;;;11.50;99.90;;;;;;5090708;28;20427;-79
2022/09/26 10:17:08;;;;;;;1.45;1.15;;;11.50;99.90;;;;;;5069210;28;20052;-80
2022/09/26 10:19:39;;;;;;;2.65;1.40;;;11.50;99.90;;;;;;5061154;28;20079;-80
2022/09/26 10:22:09;;;;;;;2.97;1.63;;;11.30;99.90;;;;;;5074514;28;20040;-80
2022/09/26 10:24:40;;;;;;;2.67;1.30;;;11.80;99.90;;;;;;5073626;28;20071;-79
2022/09/26 10:27:17;;;;;;;3.72;1.40;;;11.30;99.90;;;;;;5070837;28;20053;-79
2022/09/26 10:29:44;;;;;;;3.00;1.70;;;11.70;99.90;;;;;;5057882;28;20080;-79
2022/09/26 10:32:10;;;;;;;2.38;1.52;;;11.60;99.90;;;;;;5076394;28;20040;-79
2022/09/26 10:34:38;;;;;;;2.67;1.73;;;11.40;99.90;;;;;;5077551;28;20132;-80
2022/09/26 10:37:27;;;;;;;2.35;1.52;;;11.90;99.90;;;;;;5081312;28;20071;-74
2022/09/26 10:42:39;;;;;;;2.92;1.38;;;11.50;99.90;;;;;;5103622;28;20052;-74
2022/09/26 10:45:20;;;;;;;1.92;1.42;;;11.30;99.90;;;;;;5070374;28;20510;-75
2022/09/26 10:47:49;;;;;;;1.80;1.35;;;11.40;99.90;;;;;;5082448;28;20500;-81
2022/09/26 10:50:22;;;;;;;2.58;1.60;;;11.60;99.90;;;;;;5069600;28;20123;-80
2022/09/26 10:52:52;;;;;;;3.38;1.90;;;11.80;99.90;;;;;;5058968;28;20059;-81
2022/09/26 10:55:26;;;;;;;2.58;1.67;;;11.80;99.90;;;;;;5053443;28;20051;-81
2022/09/26 10:57:58;;;;;;;1.88;1.33;;;11.30;99.90;;;;;;5086425;28;20063;-81
2022/09/26 11:00:36;;;;;;;1.77;1.20;;;11.10;99.90;;;;;;5078207;28;20191;-80
2022/09/26 11:03:12;;;;;;;2.22;1.15;;;11.80;99.90;;;;;;5085332;28;20051;-80
2022/09/26 11:05:56;;;;;;;2.97;1.57;;;11.20;99.90;;;;;;5069233;28;20047;-81
2022/09/26 11:08:33;;;;;;;2.80;1.50;;;11.30;99.90;;;;;;5071631;28;20355;-81
2022/09/26 11:11:02;;;;;;;2.47;1.50;;;11.00;99.90;;;;;;5067763;28;20076;-81
2022/09/26 11:13:37;;;;;;;1.90;1.30;;;11.80;99.90;;;;;;5081895;28;20414;-81
2022/09/26 11:16:12;;;;;;;3.00;1.40;;;11.30;99.90;;;;;;5088982;28;20043;-82
2022/09/26 11:18:43;;;;;;;2.05;1.42;;;11.00;99.90;;;;;;5089495;28;20444;-82
2022/09/26 11:21:28;;;;;;;1.95;1.63;;;10.90;99.90;;;;;;5088965;28;20513;-81
2022/09/26 11:24:10;;;;;;;2.65;1.45;;;11.20;99.90;;;;;;5073187;28;20040;-81
2022/09/26 11:26:58;;;;;;;2.80;1.50;;;11.70;99.90;;;;;;5089727;28;20127;-81
2022/09/26 11:30:19;;;;;;;5.03;1.60;;;10.90;99.90;;;;;;5089371;28;20040;-80
2022/09/26 11:32:55;;;;;;;2.55;1.38;;;11.60;99.90;;;;;;5066210;28;20048;-81
2022/09/26 11:35:42;;;;;;;2.47;1.55;;;11.70;99.90;;;;;;5089384;28;20051;-82
2022/09/26 11:38:27;;;;;;;1.92;1.40;;;11.90;99.90;;;;;;5089353;28;20052;-81
2022/09/26 11:41:35;;;;;;;2.50;1.50;;;11.30;99.90;;;;;;5089055;28;20087;-81
2022/09/26 11:44:38;;;;;;;2.60;1.40;;;11.00;99.90;;;;;;5089571;28;20044;-81
2022/09/26 11:47:35;;;;;;;2.50;1.23;;;12.00;99.90;;;;;;5089343;28;20055;-81
2022/09/26 11:50:27;;;;;;;2.45;1.10;;;11.50;99.90;;;;;;5084745;28;20193;-81
2022/09/26 11:53:23;;;;;;;2.88;1.10;;;11.10;99.90;;;;;;5089188;28;20526;-81
2022/09/26 11:56:09;;;;;;;1.92;1.10;;;11.90;99.90;;;;;;5036984;28;20139;-81
2022/09/26 11:58:42;;;;;;;1.73;1.15;;;11.60;99.90;;;;;;5072727;28;20124;-81
2022/09/26 12:01:37;;;;;;;1.88;1.20;;;11.20;99.90;;;;;;5089300;28;20130;-81
2022/09/26 12:04:24;;;;;;;1.67;1.23;;;11.20;99.90;;;;;;5086113;28;20551;-81
2022/09/26 12:07:08;;;;;;;1.88;1.10;;;11.50;99.90;;;;;;5069851;28;20109;-81
2022/09/26 12:10:00;;;;;;;1.33;1.02;;;11.40;99.90;;;;;;5052578;28;20495;-82
2022/09/26 12:12:40;;;;;;;1.60;1.05;;;11.30;99.90;;;;;;5052537;28;20047;-80
2022/09/26 12:15:35;;;;;;;1.65;1.05;;;12.10;99.90;;;;;;5071715;28;20452;-80
2022/09/26 12:18:12;;;;;;;1.45;1.20;;;12.20;99.90;;;;;;5069488;28;20101;-82
2022/09/26 12:21:07;;;;;;;2.47;1.30;;;12.20;99.90;;;;;;5069472;28;20051;-81
2022/09/26 12:23:36;;;;;;;1.83;1.20;;;12.30;99.90;;;;;;5070116;28;20158;-80
2022/09/26 12:26:20;;;;;;;2.35;1.25;;;11.30;99.90;;;;;;5073183;28;20036;-80
2022/09/26 12:28:56;;;;;;;1.35;1.00;;;11.40;99.90;;;;;;5068874;28;20076;-80
2022/09/26 12:31:37;;;;;;;1.70;1.00;;;11.30;99.90;;;;;;5052403;28;20044;-80
2022/09/26 12:34:24;;;;;;;3.28;1.17;;;12.00;99.90;;;;;;5052699;28;20044;-81
2022/09/26 12:37:22;;;;;;;1.40;1.00;;;12.10;99.90;;;;;;5069031;28;20135;-81
2022/09/26 12:39:51;;;;;;;;;;;12.10;99.90;;;;;;5069224;28;20098;-82
2022/09/26 12:42:55;;;;;;;1.48;1.20;;;11.50;99.90;;;;;;5073220;28;20004;-80
2022/09/26 12:45:37;;;;;;;2.90;1.38;;;11.80;99.90;;;;;;5051608;28;20067;-81
2022/09/26 12:48:41;;;;;;;1.15;0.82;;;11.50;99.90;;;;;;5088925;28;20036;-82
2022/09/26 12:51:22;;;;;;;1.70;1.00;;;11.50;99.90;;;;;;5055741;28;20045;-81
2022/09/26 12:53:57;;;;;;;1.10;0.90;;;11.60;99.90;;;;;;5069652;28;20053;-84
2022/09/26 12:57:04;;;;;;;1.80;0.93;;;11.90;99.90;;;;;;5067329;28;20064;-83
2022/09/26 12:59:59;;;;;;;1.13;1.00;;;12.50;99.90;;;;;;5072703;28;20384;-81
2022/09/26 13:02:32;;;;;;;1.73;0.95;;;11.90;99.90;;;;;;5075288;28;20059;-76
2022/09/26 13:05:23;;;;;;;1.40;1.10;;;12.00;99.90;;;;;;5081772;28;20097;-77
2022/09/26 13:08:19;;;;;;;1.20;1.10;;;11.70;99.90;;;;;;5082681;28;20106;-76
2022/09/26 13:11:29;;;;;;;1.65;1.10;;;11.80;99.90;;;;;;5090994;28;20127;-76
2022/09/26 13:14:26;;;;;;;1.20;0.90;;;11.90;99.90;;;;;;5073927;28;20066;-76
2022/09/26 13:16:55;;;;;;;1.10;1.00;;;12.70;99.90;;;;;;5073045;28;20052;-75
2022/09/26 13:19:24;;;;;;;1.23;0.88;;;12.70;99.90;;;;;;5077390;28;20399;-77
2022/09/26 13:21:58;;;;;;;1.17;0.88;;;12.70;99.90;;;;;;5092669;28;20036;-77
2022/09/26 13:24:33;;;;;;;1.35;0.70;;;11.90;99.90;;;;;;5075103;28;20040;-77
2022/09/26 13:27:22;;;;;;;0.93;0.80;;;12.30;99.90;;;;;;5093261;28;20047;-76
2022/09/26 13:30:04;;;;;;;1.52;1.05;;;12.80;99.90;;;;;;5075147;28;20043;-76
2022/09/26 13:32:53;;;;;;;1.25;0.85;;;12.80;99.90;;;;;;5084369;28;20105;-76
2022/09/26 13:35:24;;;;;;;1.60;0.90;;;13.00;99.90;;;;;;5084073;28;20040;-76